sensor_id;sensor_type;location;lat;lon;timestamp;P1;P2;P0
74880;PMS5003;63427;49.654;6.596;2022-10-18T00:01:54;11;10;
74880;PMS5003;63427;49.654;6.596;2022-10-18T00:04:20;8;8;
74880;PMS5003;63427;49.654;6.596;2022-10-18T00:06:45;8;8;
74880;PMS5003;63427;49.654;6.596;2022-10-18T00:09:10;8;8;
74880;PMS5003;63427;49.654;6.596;2022-10-18T00:11:36;9;9;
74880;PMS5003;63427;49.654;6.596;2022-10-18T00:14:00;9;9;
74880;PMS5003;63427;49.654;6.596;2022-10-18T00:16:26;9;8;
74880;PMS5003;63427;49.654;6.596;2022-10-18T00:18:51;8;8;
74880;PMS5003;63427;49.654;6.596;2022-10-18T00:21:16;9;8;
74880;PMS5003;63427;49.654;6.596;2022-10-18T00:23:41;10;9;
74880;PMS5003;63427;49.654;6.596;2022-10-18T00:26:07;8;8;
74880;PMS5003;63427;49.654;6.596;2022-10-18T00:28:32;24;24;
74880;PMS5003;63427;49.654;6.596;2022-10-18T00:30:57;11;11;
74880;PMS5003;63427;49.654;6.596;2022-10-18T00:33:23;13;13;
74880;PMS5003;63427;49.654;6.596;2022-10-18T00:35:48;10;10;
74880;PMS5003;63427;49.654;6.596;2022-10-18T00:38:13;8;8;
74880;PMS5003;63427;49.654;6.596;2022-10-18T00:40:38;8;8;
74880;PMS5003;63427;49.654;6.596;2022-10-18T00:43:03;8;8;
74880;PMS5003;63427;49.654;6.596;2022-10-18T00:45:29;5;5;
74880;PMS5003;63427;49.654;6.596;2022-10-18T00:47:54;5;5;
74880;PMS5003;63427;49.654;6.596;2022-10-18T00:50:19;6;5;
74880;PMS5003;63427;49.654;6.596;2022-10-18T00:52:45;6;6;
74880;PMS5003;63427;49.654;6.596;2022-10-18T00:55:09;5;5;
74880;PMS5003;63427;49.654;6.596;2022-10-18T00:57:34;6;6;
74880;PMS5003;63427;49.654;6.596;2022-10-18T01:00:00;5;5;
74880;PMS5003;63427;49.654;6.596;2022-10-18T01:02:25;7;7;
74880;PMS5003;63427;49.654;6.596;2022-10-18T01:04:50;5;5;
74880;PMS5003;63427;49.654;6.596;2022-10-18T01:07:19;5;5;
74880;PMS5003;63427;49.654;6.596;2022-10-18T01:09:42;6;6;
74880;PMS5003;63427;49.654;6.596;2022-10-18T01:12:10;5;5;
74880;PMS5003;63427;49.654;6.596;2022-10-18T01:14:34;5;5;
74880;PMS5003;63427;49.654;6.596;2022-10-18T01:16:57;6;5;
74880;PMS5003;63427;49.654;6.596;2022-10-18T01:21:47;5;4;
74880;PMS5003;63427;49.654;6.596;2022-10-18T01:24:20;5;5;
74880;PMS5003;63427;49.654;6.596;2022-10-18T01:26:40;5;5;
74880;PMS5003;63427;49.654;6.596;2022-10-18T01:29:06;7;7;
74880;PMS5003;63427;49.654;6.596;2022-10-18T01:31:28;5;5;
74880;PMS5003;63427;49.654;6.596;2022-10-18T01:33:54;4;4;
74880;PMS5003;63427;49.654;6.596;2022-10-18T01:36:20;4;4;
74880;PMS5003;63427;49.654;6.596;2022-10-18T01:38:43;6;5;
74880;PMS5003;63427;49.654;6.596;2022-10-18T01:41:08;6;6;
74880;PMS5003;63427;49.654;6.596;2022-10-18T01:43:33;4;4;
74880;PMS5003;63427;49.654;6.596;2022-10-18T01:45:58;6;5;
74880;PMS5003;63427;49.654;6.596;2022-10-18T01:48:23;4;4;
74880;PMS5003;63427;49.654;6.596;2022-10-18T01:50:49;5;4;
74880;PMS5003;63427;49.654;6.596;2022-10-18T01:53:21;4;4;
74880;PMS5003;63427;49.654;6.596;2022-10-18T01:55:41;4;4;
74880;PMS5003;63427;49.654;6.596;2022-10-18T01:58:04;5;5;
74880;PMS5003;63427;49.654;6.596;2022-10-18T02:00:30;5;5;
74880;PMS5003;63427;49.654;6.596;2022-10-18T02:02:55;5;5;
74880;PMS5003;63427;49.654;6.596;2022-10-18T02:05:21;6;6;
74880;PMS5003;63427;49.654;6.596;2022-10-18T02:07:47;4;4;
74880;PMS5003;63427;49.654;6.596;2022-10-18T02:10:11;5;5;
74880;PMS5003;63427;49.654;6.596;2022-10-18T02:12:36;5;5;
74880;PMS5003;63427;49.654;6.596;2022-10-18T02:15:00;4;4;
74880;PMS5003;63427;49.654;6.596;2022-10-18T02:17:26;4;4;
74880;PMS5003;63427;49.654;6.596;2022-10-18T02:19:52;3;3;
74880;PMS5003;63427;49.654;6.596;2022-10-18T02:22:16;3;3;
74880;PMS5003;63427;49.654;6.596;2022-10-18T02:24:43;3;3;
74880;PMS5003;63427;49.654;6.596;2022-10-18T02:27:06;3;2;
74880;PMS5003;63427;49.654;6.596;2022-10-18T02:29:32;3;3;
74880;PMS5003;63427;49.654;6.596;2022-10-18T02:31:58;4;4;
74880;PMS5003;63427;49.654;6.596;2022-10-18T02:34:22;5;5;
74880;PMS5003;63427;49.654;6.596;2022-10-18T02:36:49;6;5;
74880;PMS5003;63427;49.654;6.596;2022-10-18T02:39:13;5;5;
74880;PMS5003;63427;49.654;6.596;2022-10-18T02:41:38;5;5;
74880;PMS5003;63427;49.654;6.596;2022-10-18T02:44:03;3;3;
74880;PMS5003;63427;49.654;6.596;2022-10-18T02:46:28;6;5;
74880;PMS5003;63427;49.654;6.596;2022-10-18T02:48:53;4;4;
74880;PMS5003;63427;49.654;6.596;2022-10-18T02:51:18;5;5;
74880;PMS5003;63427;49.654;6.596;2022-10-18T02:53:44;5;5;
74880;PMS5003;63427;49.654;6.596;2022-10-18T02:56:09;3;3;
74880;PMS5003;63427;49.654;6.596;2022-10-18T02:58:34;4;4;
74880;PMS5003;63427;49.654;6.596;2022-10-18T03:01:00;3;3;
74880;PMS5003;63427;49.654;6.596;2022-10-18T03:03:25;5;5;
74880;PMS5003;63427;49.654;6.596;2022-10-18T03:05:50;5;5;
74880;PMS5003;63427;49.654;6.596;2022-10-18T03:08:15;5;5;
74880;PMS5003;63427;49.654;6.596;2022-10-18T03:10:42;4;4;
74880;PMS5003;63427;49.654;6.596;2022-10-18T03:13:06;4;4;
74880;PMS5003;63427;49.654;6.596;2022-10-18T03:15:31;5;5;
74880;PMS5003;63427;49.654;6.596;2022-10-18T03:17:56;6;6;
74880;PMS5003;63427;49.654;6.596;2022-10-18T03:20:21;6;6;
74880;PMS5003;63427;49.654;6.596;2022-10-18T03:22:47;5;5;
74880;PMS5003;63427;49.654;6.596;2022-10-18T03:25:12;4;4;
74880;PMS5003;63427;49.654;6.596;2022-10-18T03:27:37;4;4;
74880;PMS5003;63427;49.654;6.596;2022-10-18T03:30:02;5;5;
74880;PMS5003;63427;49.654;6.596;2022-10-18T03:32:27;4;4;
74880;PMS5003;63427;49.654;6.596;2022-10-18T03:34:52;5;5;
74880;PMS5003;63427;49.654;6.596;2022-10-18T03:37:18;5;5;
74880;PMS5003;63427;49.654;6.596;2022-10-18T03:39:43;3;3;
74880;PMS5003;63427;49.654;6.596;2022-10-18T03:42:08;4;4;
74880;PMS5003;63427;49.654;6.596;2022-10-18T03:44:33;2;2;
74880;PMS5003;63427;49.654;6.596;2022-10-18T03:46:58;1;1;
74880;PMS5003;63427;49.654;6.596;2022-10-18T03:49:24;3;3;
74880;PMS5003;63427;49.654;6.596;2022-10-18T03:51:49;5;5;
74880;PMS5003;63427;49.654;6.596;2022-10-18T03:54:15;4;4;
74880;PMS5003;63427;49.654;6.596;2022-10-18T03:56:40;2;2;
74880;PMS5003;63427;49.654;6.596;2022-10-18T03:59:05;3;3;
74880;PMS5003;63427;49.654;6.596;2022-10-18T04:01:30;5;4;
74880;PMS5003;63427;49.654;6.596;2022-10-18T04:03:55;5;5;
74880;PMS5003;63427;49.654;6.596;2022-10-18T04:06:21;4;4;
74880;PMS5003;63427;49.654;6.596;2022-10-18T04:08:46;3;3;
74880;PMS5003;63427;49.654;6.596;2022-10-18T04:11:11;3;3;
74880;PMS5003;63427;49.654;6.596;2022-10-18T04:13:36;3;3;
74880;PMS5003;63427;49.654;6.596;2022-10-18T04:16:01;3;3;
74880;PMS5003;63427;49.654;6.596;2022-10-18T04:18:27;4;3;
74880;PMS5003;63427;49.654;6.596;2022-10-18T04:20:52;4;4;
74880;PMS5003;63427;49.654;6.596;2022-10-18T04:23:17;3;3;
74880;PMS5003;63427;49.654;6.596;2022-10-18T04:25:42;3;3;
74880;PMS5003;63427;49.654;6.596;2022-10-18T04:28:07;4;4;
74880;PMS5003;63427;49.654;6.596;2022-10-18T04:30:33;4;4;
74880;PMS5003;63427;49.654;6.596;2022-10-18T04:32:58;3;3;
74880;PMS5003;63427;49.654;6.596;2022-10-18T04:35:23;5;5;
74880;PMS5003;63427;49.654;6.596;2022-10-18T04:37:48;3;3;
74880;PMS5003;63427;49.654;6.596;2022-10-18T04:40:13;2;2;
74880;PMS5003;63427;49.654;6.596;2022-10-18T04:42:39;5;5;
74880;PMS5003;63427;49.654;6.596;2022-10-18T04:45:04;5;5;
74880;PMS5003;63427;49.654;6.596;2022-10-18T04:47:29;3;3;
74880;PMS5003;63427;49.654;6.596;2022-10-18T04:49:54;4;4;
74880;PMS5003;63427;49.654;6.596;2022-10-18T04:52:19;4;4;
74880;PMS5003;63427;49.654;6.596;2022-10-18T04:54:45;3;3;
74880;PMS5003;63427;49.654;6.596;2022-10-18T04:57:10;4;3;
74880;PMS5003;63427;49.654;6.596;2022-10-18T04:59:35;4;4;
74880;PMS5003;63427;49.654;6.596;2022-10-18T05:02:01;24;23;
74880;PMS5003;63427;49.654;6.596;2022-10-18T05:04:26;4;4;
74880;PMS5003;63427;49.654;6.596;2022-10-18T05:06:51;4;4;
74880;PMS5003;63427;49.654;6.596;2022-10-18T05:09:16;4;4;
74880;PMS5003;63427;49.654;6.596;2022-10-18T05:11:42;6;6;
74880;PMS5003;63427;49.654;6.596;2022-10-18T05:14:07;6;5;
74880;PMS5003;63427;49.654;6.596;2022-10-18T05:16:32;5;5;
74880;PMS5003;63427;49.654;6.596;2022-10-18T05:18:57;3;3;
74880;PMS5003;63427;49.654;6.596;2022-10-18T05:21:22;3;3;
74880;PMS5003;63427;49.654;6.596;2022-10-18T05:23:48;4;4;
74880;PMS5003;63427;49.654;6.596;2022-10-18T05:26:13;1;1;
74880;PMS5003;63427;49.654;6.596;2022-10-18T05:28:38;2;2;
74880;PMS5003;63427;49.654;6.596;2022-10-18T05:31:04;2;2;
74880;PMS5003;63427;49.654;6.596;2022-10-18T05:33:29;2;2;
74880;PMS5003;63427;49.654;6.596;2022-10-18T05:35:54;3;3;
74880;PMS5003;63427;49.654;6.596;2022-10-18T05:38:19;3;3;
74880;PMS5003;63427;49.654;6.596;2022-10-18T05:40:44;4;3;
74880;PMS5003;63427;49.654;6.596;2022-10-18T05:43:09;2;2;
74880;PMS5003;63427;49.654;6.596;2022-10-18T05:45:34;3;3;
74880;PMS5003;63427;49.654;6.596;2022-10-18T05:48:00;5;5;
74880;PMS5003;63427;49.654;6.596;2022-10-18T05:50:25;3;3;
74880;PMS5003;63427;49.654;6.596;2022-10-18T05:52:50;4;4;
74880;PMS5003;63427;49.654;6.596;2022-10-18T05:55:15;3;3;
74880;PMS5003;63427;49.654;6.596;2022-10-18T05:57:40;5;5;
74880;PMS5003;63427;49.654;6.596;2022-10-18T06:00:06;4;4;
74880;PMS5003;63427;49.654;6.596;2022-10-18T06:02:31;4;4;
74880;PMS5003;63427;49.654;6.596;2022-10-18T06:04:56;3;3;
74880;PMS5003;63427;49.654;6.596;2022-10-18T06:07:21;6;6;
74880;PMS5003;63427;49.654;6.596;2022-10-18T06:09:46;2;2;
74880;PMS5003;63427;49.654;6.596;2022-10-18T06:12:12;5;5;
74880;PMS5003;63427;49.654;6.596;2022-10-18T06:14:37;3;3;
74880;PMS5003;63427;49.654;6.596;2022-10-18T06:17:02;4;4;
74880;PMS5003;63427;49.654;6.596;2022-10-18T06:19:27;4;4;
74880;PMS5003;63427;49.654;6.596;2022-10-18T06:21:52;4;4;
74880;PMS5003;63427;49.654;6.596;2022-10-18T06:24:18;4;4;
74880;PMS5003;63427;49.654;6.596;2022-10-18T06:26:43;5;5;
74880;PMS5003;63427;49.654;6.596;2022-10-18T06:29:08;2;2;
74880;PMS5003;63427;49.654;6.596;2022-10-18T06:31:33;2;2;
74880;PMS5003;63427;49.654;6.596;2022-10-18T06:33:58;4;4;
74880;PMS5003;63427;49.654;6.596;2022-10-18T06:36:24;2;2;
74880;PMS5003;63427;49.654;6.596;2022-10-18T06:38:50;3;3;
74880;PMS5003;63427;49.654;6.596;2022-10-18T06:41:14;3;2;
74880;PMS5003;63427;49.654;6.596;2022-10-18T06:43:46;3;3;
74880;PMS5003;63427;49.654;6.596;2022-10-18T06:46:05;3;3;
74880;PMS5003;63427;49.654;6.596;2022-10-18T06:48:30;2;2;
74880;PMS5003;63427;49.654;6.596;2022-10-18T06:50:55;2;2;
74880;PMS5003;63427;49.654;6.596;2022-10-18T06:53:20;3;3;
74880;PMS5003;63427;49.654;6.596;2022-10-18T06:55:45;4;4;
74880;PMS5003;63427;49.654;6.596;2022-10-18T06:58:10;4;4;
74880;PMS5003;63427;49.654;6.596;2022-10-18T07:00:35;3;3;
74880;PMS5003;63427;49.654;6.596;2022-10-18T07:03:01;3;3;
74880;PMS5003;63427;49.654;6.596;2022-10-18T07:05:27;2;2;
74880;PMS5003;63427;49.654;6.596;2022-10-18T07:07:51;4;4;
74880;PMS5003;63427;49.654;6.596;2022-10-18T07:10:16;2;2;
74880;PMS5003;63427;49.654;6.596;2022-10-18T07:12:41;4;4;
74880;PMS5003;63427;49.654;6.596;2022-10-18T07:15:07;2;2;
74880;PMS5003;63427;49.654;6.596;2022-10-18T07:17:32;2;2;
74880;PMS5003;63427;49.654;6.596;2022-10-18T07:19:57;2;2;
74880;PMS5003;63427;49.654;6.596;2022-10-18T07:22:22;4;4;
74880;PMS5003;63427;49.654;6.596;2022-10-18T07:24:47;3;3;
74880;PMS5003;63427;49.654;6.596;2022-10-18T07:27:12;3;3;
74880;PMS5003;63427;49.654;6.596;2022-10-18T07:29:38;4;4;
74880;PMS5003;63427;49.654;6.596;2022-10-18T07:32:03;4;4;
74880;PMS5003;63427;49.654;6.596;2022-10-18T07:34:28;4;4;
74880;PMS5003;63427;49.654;6.596;2022-10-18T07:36:53;5;4;
74880;PMS5003;63427;49.654;6.596;2022-10-18T07:39:19;2;2;
74880;PMS5003;63427;49.654;6.596;2022-10-18T07:41:44;3;3;
74880;PMS5003;63427;49.654;6.596;2022-10-18T07:44:09;2;2;
74880;PMS5003;63427;49.654;6.596;2022-10-18T07:46:34;4;3;
74880;PMS5003;63427;49.654;6.596;2022-10-18T07:48:59;4;4;
74880;PMS5003;63427;49.654;6.596;2022-10-18T07:51:25;4;4;
74880;PMS5003;63427;49.654;6.596;2022-10-18T07:53:50;4;4;
74880;PMS5003;63427;49.654;6.596;2022-10-18T07:56:15;3;3;
74880;PMS5003;63427;49.654;6.596;2022-10-18T07:58:40;4;4;
74880;PMS5003;63427;49.654;6.596;2022-10-18T08:01:06;3;3;
74880;PMS5003;63427;49.654;6.596;2022-10-18T08:03:30;4;4;
74880;PMS5003;63427;49.654;6.596;2022-10-18T08:05:55;3;3;
74880;PMS5003;63427;49.654;6.596;2022-10-18T08:08:21;4;3;
74880;PMS5003;63427;49.654;6.596;2022-10-18T08:10:46;4;4;
74880;PMS5003;63427;49.654;6.596;2022-10-18T08:13:11;3;3;
74880;PMS5003;63427;49.654;6.596;2022-10-18T08:15:36;5;5;
74880;PMS5003;63427;49.654;6.596;2022-10-18T08:18:01;4;4;
74880;PMS5003;63427;49.654;6.596;2022-10-18T08:20:26;5;4;
74880;PMS5003;63427;49.654;6.596;2022-10-18T08:22:51;4;4;
74880;PMS5003;63427;49.654;6.596;2022-10-18T08:25:17;5;5;
74880;PMS5003;63427;49.654;6.596;2022-10-18T08:27:42;2;2;
74880;PMS5003;63427;49.654;6.596;2022-10-18T08:30:07;2;2;
74880;PMS5003;63427;49.654;6.596;2022-10-18T08:32:32;3;3;
74880;PMS5003;63427;49.654;6.596;2022-10-18T08:34:57;3;3;
74880;PMS5003;63427;49.654;6.596;2022-10-18T08:37:22;2;2;
74880;PMS5003;63427;49.654;6.596;2022-10-18T08:39:48;0;0;
74880;PMS5003;63427;49.654;6.596;2022-10-18T08:42:20;1;1;
74880;PMS5003;63427;49.654;6.596;2022-10-18T08:44:41;1;1;
74880;PMS5003;63427;49.654;6.596;2022-10-18T08:47:03;1;1;
74880;PMS5003;63427;49.654;6.596;2022-10-18T08:49:28;1;1;
74880;PMS5003;63427;49.654;6.596;2022-10-18T08:51:53;1;1;
74880;PMS5003;63427;49.654;6.596;2022-10-18T08:54:21;4;4;
74880;PMS5003;63427;49.654;6.596;2022-10-18T08:56:44;6;6;
74880;PMS5003;63427;49.654;6.596;2022-10-18T08:59:08;4;4;
74880;PMS5003;63427;49.654;6.596;2022-10-18T09:01:36;1;1;
74880;PMS5003;63427;49.654;6.596;2022-10-18T09:04:06;2;2;
74880;PMS5003;63427;49.654;6.596;2022-10-18T09:06:24;8;8;
74880;PMS5003;63427;49.654;6.596;2022-10-18T09:08:51;1;0;
74880;PMS5003;63427;49.654;6.596;2022-10-18T09:11:17;2;2;
74880;PMS5003;63427;49.654;6.596;2022-10-18T09:16:05;1;1;
74880;PMS5003;63427;49.654;6.596;2022-10-18T09:18:35;0;0;
74880;PMS5003;63427;49.654;6.596;2022-10-18T09:20:55;0;0;
74880;PMS5003;63427;49.654;6.596;2022-10-18T09:23:19;1;1;
74880;PMS5003;63427;49.654;6.596;2022-10-18T09:25:44;1;1;
74880;PMS5003;63427;49.654;6.596;2022-10-18T09:28:13;1;1;
74880;PMS5003;63427;49.654;6.596;2022-10-18T09:30:38;2;2;
74880;PMS5003;63427;49.654;6.596;2022-10-18T09:33:01;2;1;
74880;PMS5003;63427;49.654;6.596;2022-10-18T09:35:24;1;1;
74880;PMS5003;63427;49.654;6.596;2022-10-18T09:37:49;1;1;
74880;PMS5003;63427;49.654;6.596;2022-10-18T09:40:14;1;1;
74880;PMS5003;63427;49.654;6.596;2022-10-18T09:42:40;2;2;
74880;PMS5003;63427;49.654;6.596;2022-10-18T09:45:05;1;1;
74880;PMS5003;63427;49.654;6.596;2022-10-18T09:47:31;1;1;
74880;PMS5003;63427;49.654;6.596;2022-10-18T09:49:55;1;1;
74880;PMS5003;63427;49.654;6.596;2022-10-18T09:52:20;2;2;
74880;PMS5003;63427;49.654;6.596;2022-10-18T09:54:45;1;1;
74880;PMS5003;63427;49.654;6.596;2022-10-18T09:57:10;1;1;
74880;PMS5003;63427;49.654;6.596;2022-10-18T09:59:36;2;2;
74880;PMS5003;63427;49.654;6.596;2022-10-18T10:01:59;1;1;
74880;PMS5003;63427;49.654;6.596;2022-10-18T10:04:24;1;1;
74880;PMS5003;63427;49.654;6.596;2022-10-18T10:06:50;1;1;
74880;PMS5003;63427;49.654;6.596;2022-10-18T10:09:16;2;2;
74880;PMS5003;63427;49.654;6.596;2022-10-18T10:11:43;1;1;
74880;PMS5003;63427;49.654;6.596;2022-10-18T10:14:08;2;2;
74880;PMS5003;63427;49.654;6.596;2022-10-18T10:16:33;1;1;
74880;PMS5003;63427;49.654;6.596;2022-10-18T10:18:59;1;1;
74880;PMS5003;63427;49.654;6.596;2022-10-18T10:21:25;0;0;
74880;PMS5003;63427;49.654;6.596;2022-10-18T10:23:51;0;0;
74880;PMS5003;63427;49.654;6.596;2022-10-18T10:26:20;1;1;
74880;PMS5003;63427;49.654;6.596;2022-10-18T10:28:41;2;1;
74880;PMS5003;63427;49.654;6.596;2022-10-18T10:33:33;1;1;
74880;PMS5003;63427;49.654;6.596;2022-10-18T10:35:59;0;0;
74880;PMS5003;63427;49.654;6.596;2022-10-18T10:38:25;1;1;
74880;PMS5003;63427;49.654;6.596;2022-10-18T10:40:50;0;0;
74880;PMS5003;63427;49.654;6.596;2022-10-18T10:43:16;2;2;
74880;PMS5003;63427;49.654;6.596;2022-10-18T10:45:50;2;2;
74880;PMS5003;63427;49.654;6.596;2022-10-18T10:48:11;0;0;
74880;PMS5003;63427;49.654;6.596;2022-10-18T10:52:59;2;2;
74880;PMS5003;63427;49.654;6.596;2022-10-18T10:55:27;1;1;
74880;PMS5003;63427;49.654;6.596;2022-10-18T10:57:50;1;1;
74880;PMS5003;63427;49.654;6.596;2022-10-18T11:02:42;1;1;
74880;PMS5003;63427;49.654;6.596;2022-10-18T11:05:20;2;2;
74880;PMS5003;63427;49.654;6.596;2022-10-18T11:07:34;2;2;
74880;PMS5003;63427;49.654;6.596;2022-10-18T11:10:00;2;2;
74880;PMS5003;63427;49.654;6.596;2022-10-18T11:12:27;3;2;
74880;PMS5003;63427;49.654;6.596;2022-10-18T11:14:54;3;3;
74880;PMS5003;63427;49.654;6.596;2022-10-18T11:17:20;4;4;
74880;PMS5003;63427;49.654;6.596;2022-10-18T11:22:10;2;2;
74880;PMS5003;63427;49.654;6.596;2022-10-18T11:24:33;1;1;
74880;PMS5003;63427;49.654;6.596;2022-10-18T11:27:00;1;1;
74880;PMS5003;63427;49.654;6.596;2022-10-18T11:29:29;3;3;
74880;PMS5003;63427;49.654;6.596;2022-10-18T11:31:53;2;2;
74880;PMS5003;63427;49.654;6.596;2022-10-18T11:34:21;0;0;
74880;PMS5003;63427;49.654;6.596;2022-10-18T11:36:45;1;1;
74880;PMS5003;63427;49.654;6.596;2022-10-18T11:39:09;3;3;
74880;PMS5003;63427;49.654;6.596;2022-10-18T11:41:34;1;1;
74880;PMS5003;63427;49.654;6.596;2022-10-18T11:43:59;2;2;
74880;PMS5003;63427;49.654;6.596;2022-10-18T11:46:25;3;3;
74880;PMS5003;63427;49.654;6.596;2022-10-18T11:48:53;3;3;
74880;PMS5003;63427;49.654;6.596;2022-10-18T11:51:14;2;2;
74880;PMS5003;63427;49.654;6.596;2022-10-18T11:53:40;2;2;
74880;PMS5003;63427;49.654;6.596;2022-10-18T11:56:05;2;2;
74880;PMS5003;63427;49.654;6.596;2022-10-18T11:58:35;2;2;
74880;PMS5003;63427;49.654;6.596;2022-10-18T12:00:55;2;2;
74880;PMS5003;63427;49.654;6.596;2022-10-18T12:03:22;3;3;
74880;PMS5003;63427;49.654;6.596;2022-10-18T12:05:43;4;4;
74880;PMS5003;63427;49.654;6.596;2022-10-18T12:08:10;3;3;
74880;PMS5003;63427;49.654;6.596;2022-10-18T12:10:33;2;2;
74880;PMS5003;63427;49.654;6.596;2022-10-18T12:12:58;2;2;
74880;PMS5003;63427;49.654;6.596;2022-10-18T12:15:24;0;0;
74880;PMS5003;63427;49.654;6.596;2022-10-18T12:17:49;5;5;
74880;PMS5003;63427;49.654;6.596;2022-10-18T12:20:14;2;2;
74880;PMS5003;63427;49.654;6.596;2022-10-18T12:22:39;1;1;
74880;PMS5003;63427;49.654;6.596;2022-10-18T12:25:03;1;1;
74880;PMS5003;63427;49.654;6.596;2022-10-18T12:27:31;1;1;
74880;PMS5003;63427;49.654;6.596;2022-10-18T12:29:55;1;1;
74880;PMS5003;63427;49.654;6.596;2022-10-18T12:32:21;1;1;
74880;PMS5003;63427;49.654;6.596;2022-10-18T12:34:46;1;1;
74880;PMS5003;63427;49.654;6.596;2022-10-18T12:37:21;1;1;
74880;PMS5003;63427;49.654;6.596;2022-10-18T12:39:37;1;1;
74880;PMS5003;63427;49.654;6.596;2022-10-18T12:42:02;1;1;
74880;PMS5003;63427;49.654;6.596;2022-10-18T12:44:29;2;1;
74880;PMS5003;63427;49.654;6.596;2022-10-18T12:46:54;0;0;
74880;PMS5003;63427;49.654;6.596;2022-10-18T12:49:20;1;1;
74880;PMS5003;63427;49.654;6.596;2022-10-18T12:51:49;0;0;
74880;PMS5003;63427;49.654;6.596;2022-10-18T12:54:11;1;1;
74880;PMS5003;63427;49.654;6.596;2022-10-18T12:56:38;1;1;
74880;PMS5003;63427;49.654;6.596;2022-10-18T13:01:32;1;1;
74880;PMS5003;63427;49.654;6.596;2022-10-18T13:03:55;1;1;
74880;PMS5003;63427;49.654;6.596;2022-10-18T13:06:20;1;0;
74880;PMS5003;63427;49.654;6.596;2022-10-18T13:08:46;2;2;
74880;PMS5003;63427;49.654;6.596;2022-10-18T13:13:42;1;1;
74880;PMS5003;63427;49.654;6.596;2022-10-18T13:16:06;1;1;
74880;PMS5003;63427;49.654;6.596;2022-10-18T13:18:32;2;2;
74880;PMS5003;63427;49.654;6.596;2022-10-18T13:20:56;2;2;
74880;PMS5003;63427;49.654;6.596;2022-10-18T13:23:26;1;1;
74880;PMS5003;63427;49.654;6.596;2022-10-18T13:25:50;2;2;
74880;PMS5003;63427;49.654;6.596;2022-10-18T13:28:16;2;2;
74880;PMS5003;63427;49.654;6.596;2022-10-18T13:30:40;0;0;
74880;PMS5003;63427;49.654;6.596;2022-10-18T13:33:08;3;1;
74880;PMS5003;63427;49.654;6.596;2022-10-18T13:37:56;1;1;
74880;PMS5003;63427;49.654;6.596;2022-10-18T13:40:21;1;1;
74880;PMS5003;63427;49.654;6.596;2022-10-18T13:42:47;1;1;
74880;PMS5003;63427;49.654;6.596;2022-10-18T13:47:38;2;2;
74880;PMS5003;63427;49.654;6.596;2022-10-18T13:50:15;2;2;
74880;PMS5003;63427;49.654;6.596;2022-10-18T13:52:33;0;0;
74880;PMS5003;63427;49.654;6.596;2022-10-18T13:54:59;0;0;
74880;PMS5003;63427;49.654;6.596;2022-10-18T13:57:26;2;2;
74880;PMS5003;63427;49.654;6.596;2022-10-18T14:02:22;2;2;
74880;PMS5003;63427;49.654;6.596;2022-10-18T14:04:56;2;2;
74880;PMS5003;63427;49.654;6.596;2022-10-18T14:07:05;0;0;
74880;PMS5003;63427;49.654;6.596;2022-10-18T14:09:33;2;2;
74880;PMS5003;63427;49.654;6.596;2022-10-18T14:11:58;3;3;
74880;PMS5003;63427;49.654;6.596;2022-10-18T14:14:23;2;2;
74880;PMS5003;63427;49.654;6.596;2022-10-18T14:16:49;2;2;
74880;PMS5003;63427;49.654;6.596;2022-10-18T14:19:15;1;1;
74880;PMS5003;63427;49.654;6.596;2022-10-18T14:21:39;1;1;
74880;PMS5003;63427;49.654;6.596;2022-10-18T14:24:08;2;2;
74880;PMS5003;63427;49.654;6.596;2022-10-18T14:26:30;2;2;
74880;PMS5003;63427;49.654;6.596;2022-10-18T14:29:02;1;1;
74880;PMS5003;63427;49.654;6.596;2022-10-18T14:31:22;2;2;
74880;PMS5003;63427;49.654;6.596;2022-10-18T14:33:50;2;2;
74880;PMS5003;63427;49.654;6.596;2022-10-18T14:36:14;2;2;
74880;PMS5003;63427;49.654;6.596;2022-10-18T14:38:44;2;2;
74880;PMS5003;63427;49.654;6.596;2022-10-18T14:41:10;2;2;
74880;PMS5003;63427;49.654;6.596;2022-10-18T14:43:30;2;2;
74880;PMS5003;63427;49.654;6.596;2022-10-18T14:48:22;1;1;
74880;PMS5003;63427;49.654;6.596;2022-10-18T14:50:49;7;7;
74880;PMS5003;63427;49.654;6.596;2022-10-18T14:53:14;4;4;
74880;PMS5003;63427;49.654;6.596;2022-10-18T14:55:39;3;3;
74880;PMS5003;63427;49.654;6.596;2022-10-18T14:58:08;4;4;
74880;PMS5003;63427;49.654;6.596;2022-10-18T15:00:33;4;4;
74880;PMS5003;63427;49.654;6.596;2022-10-18T15:02:57;5;5;
74880;PMS5003;63427;49.654;6.596;2022-10-18T15:05:23;10;10;
74880;PMS5003;63427;49.654;6.596;2022-10-18T15:07:49;16;16;
74880;PMS5003;63427;49.654;6.596;2022-10-18T15:10:15;21;21;
74880;PMS5003;63427;49.654;6.596;2022-10-18T15:12:39;17;17;
74880;PMS5003;63427;49.654;6.596;2022-10-18T15:15:06;17;17;
74880;PMS5003;63427;49.654;6.596;2022-10-18T15:17:30;20;20;
74880;PMS5003;63427;49.654;6.596;2022-10-18T15:19:57;13;13;
74880;PMS5003;63427;49.654;6.596;2022-10-18T15:22:22;9;9;
74880;PMS5003;63427;49.654;6.596;2022-10-18T15:25:04;5;5;
74880;PMS5003;63427;49.654;6.596;2022-10-18T15:27:18;5;5;
74880;PMS5003;63427;49.654;6.596;2022-10-18T15:29:39;10;10;
74880;PMS5003;63427;49.654;6.596;2022-10-18T15:32:12;10;10;
74880;PMS5003;63427;49.654;6.596;2022-10-18T15:34:30;8;8;
74880;PMS5003;63427;49.654;6.596;2022-10-18T15:36:56;10;10;
74880;PMS5003;63427;49.654;6.596;2022-10-18T15:39:23;7;7;
74880;PMS5003;63427;49.654;6.596;2022-10-18T15:41:48;5;5;
74880;PMS5003;63427;49.654;6.596;2022-10-18T15:44:18;7;6;
74880;PMS5003;63427;49.654;6.596;2022-10-18T15:46:39;9;9;
74880;PMS5003;63427;49.654;6.596;2022-10-18T15:51:32;9;8;
74880;PMS5003;63427;49.654;6.596;2022-10-18T15:53:56;8;7;
74880;PMS5003;63427;49.654;6.596;2022-10-18T15:56:25;7;6;
74880;PMS5003;63427;49.654;6.596;2022-10-18T15:58:46;7;6;
74880;PMS5003;63427;49.654;6.596;2022-10-18T16:01:15;4;4;
74880;PMS5003;63427;49.654;6.596;2022-10-18T16:03:36;4;4;
74880;PMS5003;63427;49.654;6.596;2022-10-18T16:06:03;6;6;
74880;PMS5003;63427;49.654;6.596;2022-10-18T16:08:26;6;6;
74880;PMS5003;63427;49.654;6.596;2022-10-18T16:10:51;7;6;
74880;PMS5003;63427;49.654;6.596;2022-10-18T16:13:16;5;5;
74880;PMS5003;63427;49.654;6.596;2022-10-18T16:15:41;4;4;
74880;PMS5003;63427;49.654;6.596;2022-10-18T16:18:07;4;3;
74880;PMS5003;63427;49.654;6.596;2022-10-18T16:20:31;4;4;
74880;PMS5003;63427;49.654;6.596;2022-10-18T16:22:56;7;6;
74880;PMS5003;63427;49.654;6.596;2022-10-18T16:25:21;7;7;
74880;PMS5003;63427;49.654;6.596;2022-10-18T16:27:47;10;10;
74880;PMS5003;63427;49.654;6.596;2022-10-18T16:30:13;4;4;
74880;PMS5003;63427;49.654;6.596;2022-10-18T16:32:37;4;4;
74880;PMS5003;63427;49.654;6.596;2022-10-18T16:35:02;3;3;
74880;PMS5003;63427;49.654;6.596;2022-10-18T16:37:27;6;6;
74880;PMS5003;63427;49.654;6.596;2022-10-18T16:39:52;4;4;
74880;PMS5003;63427;49.654;6.596;2022-10-18T16:42:17;3;3;
74880;PMS5003;63427;49.654;6.596;2022-10-18T16:44:42;4;4;
74880;PMS5003;63427;49.654;6.596;2022-10-18T16:47:08;6;6;
74880;PMS5003;63427;49.654;6.596;2022-10-18T16:49:32;5;5;
74880;PMS5003;63427;49.654;6.596;2022-10-18T16:51:58;5;5;
74880;PMS5003;63427;49.654;6.596;2022-10-18T16:54:23;6;5;
74880;PMS5003;63427;49.654;6.596;2022-10-18T16:56:48;4;4;
74880;PMS5003;63427;49.654;6.596;2022-10-18T16:59:16;3;2;
74880;PMS5003;63427;49.654;6.596;2022-10-18T17:01:38;5;5;
74880;PMS5003;63427;49.654;6.596;2022-10-18T17:04:03;5;5;
74880;PMS5003;63427;49.654;6.596;2022-10-18T17:06:31;4;4;
74880;PMS5003;63427;49.654;6.596;2022-10-18T17:08:54;4;4;